sensor_id;sensor_type;location;lat;lon;timestamp;P1;durP1;ratioP1;P2;durP2;ratioP2
23310;SDS011;11828;51.508;18.118;2022-07-09T00:02:07;12.80;;;3.00;;
23310;SDS011;11828;51.508;18.118;2022-07-09T00:04:33;11.70;;;3.65;;
23310;SDS011;11828;51.508;18.118;2022-07-09T00:06:59;11.95;;;3.30;;
23310;SDS011;11828;51.508;18.118;2022-07-09T00:09:25;11.15;;;3.30;;
23310;SDS011;11828;51.508;18.118;2022-07-09T00:11:51;12.25;;;3.10;;
23310;SDS011;11828;51.508;18.118;2022-07-09T00:14:18;12.15;;;3.35;;
23310;SDS011;11828;51.508;18.118;2022-07-09T00:16:45;10.95;;;3.03;;
23310;SDS011;11828;51.508;18.118;2022-07-09T00:19:10;11.13;;;3.03;;
23310;SDS011;11828;51.508;18.118;2022-07-09T00:21:37;13.85;;;3.28;;
23310;SDS011;11828;51.508;18.118;2022-07-09T00:24:04;9.73;;;3.25;;
23310;SDS011;11828;51.508;18.118;2022-07-09T00:26:30;10.07;;;3.20;;
23310;SDS011;11828;51.508;18.118;2022-07-09T00:28:56;13.13;;;3.50;;
23310;SDS011;11828;51.508;18.118;2022-07-09T00:31:22;19.83;;;5.38;;
23310;SDS011;11828;51.508;18.118;2022-07-09T00:33:48;19.58;;;5.85;;
23310;SDS011;11828;51.508;18.118;2022-07-09T00:36:14;15.52;;;4.68;;
23310;SDS011;11828;51.508;18.118;2022-07-09T00:38:40;15.27;;;4.13;;
23310;SDS011;11828;51.508;18.118;2022-07-09T00:41:06;10.60;;;3.53;;
23310;SDS011;11828;51.508;18.118;2022-07-09T00:43:32;10.45;;;3.60;;
23310;SDS011;11828;51.508;18.118;2022-07-09T00:45:58;11.45;;;3.13;;
23310;SDS011;11828;51.508;18.118;2022-07-09T00:48:23;11.27;;;3.65;;
23310;SDS011;11828;51.508;18.118;2022-07-09T00:50:49;11.93;;;2.95;;
23310;SDS011;11828;51.508;18.118;2022-07-09T00:53:17;11.15;;;3.60;;
23310;SDS011;11828;51.508;18.118;2022-07-09T00:55:46;15.30;;;4.25;;
23310;SDS011;11828;51.508;18.118;2022-07-09T00:58:17;16.80;;;4.63;;
23310;SDS011;11828;51.508;18.118;2022-07-09T01:00:44;15.02;;;4.00;;
23310;SDS011;11828;51.508;18.118;2022-07-09T01:03:11;12.65;;;3.53;;
23310;SDS011;11828;51.508;18.118;2022-07-09T01:05:37;12.40;;;3.92;;
23310;SDS011;11828;51.508;18.118;2022-07-09T01:08:03;10.50;;;3.30;;
23310;SDS011;11828;51.508;18.118;2022-07-09T01:10:31;12.80;;;3.50;;
23310;SDS011;11828;51.508;18.118;2022-07-09T01:12:59;9.30;;;2.83;;
23310;SDS011;11828;51.508;18.118;2022-07-09T01:15:25;7.32;;;2.63;;
23310;SDS011;11828;51.508;18.118;2022-07-09T01:17:51;8.98;;;2.70;;
23310;SDS011;11828;51.508;18.118;2022-07-09T01:20:24;7.72;;;2.65;;
23310;SDS011;11828;51.508;18.118;2022-07-09T01:22:51;10.25;;;3.67;;
23310;SDS011;11828;51.508;18.118;2022-07-09T01:25:18;8.65;;;2.90;;
23310;SDS011;11828;51.508;18.118;2022-07-09T01:27:45;10.40;;;3.47;;
23310;SDS011;11828;51.508;18.118;2022-07-09T01:30:22;10.48;;;2.70;;
23310;SDS011;11828;51.508;18.118;2022-07-09T01:32:51;8.90;;;3.00;;
23310;SDS011;11828;51.508;18.118;2022-07-09T01:35:18;10.50;;;3.28;;
23310;SDS011;11828;51.508;18.118;2022-07-09T01:37:45;9.65;;;3.78;;
23310;SDS011;11828;51.508;18.118;2022-07-09T01:40:11;15.90;;;4.50;;
23310;SDS011;11828;51.508;18.118;2022-07-09T01:42:37;17.23;;;4.97;;
23310;SDS011;11828;51.508;18.118;2022-07-09T01:45:03;15.27;;;5.00;;
23310;SDS011;11828;51.508;18.118;2022-07-09T01:47:30;16.85;;;4.55;;
23310;SDS011;11828;51.508;18.118;2022-07-09T01:49:56;11.02;;;3.42;;
23310;SDS011;11828;51.508;18.118;2022-07-09T01:52:22;9.80;;;3.20;;
23310;SDS011;11828;51.508;18.118;2022-07-09T01:54:49;9.43;;;2.63;;
23310;SDS011;11828;51.508;18.118;2022-07-09T01:57:15;11.27;;;3.38;;
23310;SDS011;11828;51.508;18.118;2022-07-09T01:59:41;8.30;;;2.53;;
23310;SDS011;11828;51.508;18.118;2022-07-09T02:02:07;9.25;;;2.80;;
23310;SDS011;11828;51.508;18.118;2022-07-09T02:04:33;11.68;;;3.17;;
23310;SDS011;11828;51.508;18.118;2022-07-09T02:06:59;8.65;;;3.05;;
23310;SDS011;11828;51.508;18.118;2022-07-09T02:09:25;10.55;;;3.40;;
23310;SDS011;11828;51.508;18.118;2022-07-09T02:11:52;7.50;;;3.10;;
23310;SDS011;11828;51.508;18.118;2022-07-09T02:14:18;11.73;;;3.92;;
23310;SDS011;11828;51.508;18.118;2022-07-09T02:16:44;10.80;;;3.30;;
23310;SDS011;11828;51.508;18.118;2022-07-09T02:19:10;9.35;;;3.05;;
23310;SDS011;11828;51.508;18.118;2022-07-09T02:21:35;9.95;;;3.83;;
23310;SDS011;11828;51.508;18.118;2022-07-09T02:24:02;9.82;;;5.30;;
23310;SDS011;11828;51.508;18.118;2022-07-09T02:26:28;10.60;;;5.90;;
23310;SDS011;11828;51.508;18.118;2022-07-09T02:28:55;10.77;;;6.15;;
23310;SDS011;11828;51.508;18.118;2022-07-09T02:31:21;12.73;;;6.40;;
23310;SDS011;11828;51.508;18.118;2022-07-09T02:33:47;11.55;;;5.68;;
23310;SDS011;11828;51.508;18.118;2022-07-09T02:36:13;15.35;;;6.05;;
23310;SDS011;11828;51.508;18.118;2022-07-09T02:38:40;17.33;;;5.65;;
23310;SDS011;11828;51.508;18.118;2022-07-09T02:41:06;16.45;;;6.18;;
23310;SDS011;11828;51.508;18.118;2022-07-09T02:43:32;12.82;;;5.90;;
23310;SDS011;11828;51.508;18.118;2022-07-09T02:45:59;13.70;;;6.03;;
23310;SDS011;11828;51.508;18.118;2022-07-09T02:48:26;9.68;;;5.30;;
23310;SDS011;11828;51.508;18.118;2022-07-09T02:50:52;9.85;;;4.07;;
23310;SDS011;11828;51.508;18.118;2022-07-09T02:53:19;11.13;;;3.20;;
23310;SDS011;11828;51.508;18.118;2022-07-09T02:55:45;8.00;;;2.70;;
23310;SDS011;11828;51.508;18.118;2022-07-09T02:58:11;11.48;;;3.15;;
23310;SDS011;11828;51.508;18.118;2022-07-09T03:00:38;13.07;;;3.33;;
23310;SDS011;11828;51.508;18.118;2022-07-09T03:03:06;8.27;;;3.00;;
23310;SDS011;11828;51.508;18.118;2022-07-09T03:05:32;10.95;;;3.03;;
23310;SDS011;11828;51.508;18.118;2022-07-09T03:07:59;10.70;;;2.90;;
23310;SDS011;11828;51.508;18.118;2022-07-09T03:10:25;11.07;;;3.13;;
23310;SDS011;11828;51.508;18.118;2022-07-09T03:12:51;8.90;;;2.70;;
23310;SDS011;11828;51.508;18.118;2022-07-09T03:15:17;11.32;;;3.00;;
23310;SDS011;11828;51.508;18.118;2022-07-09T03:17:44;7.00;;;2.45;;
23310;SDS011;11828;51.508;18.118;2022-07-09T03:20:11;9.18;;;2.65;;
23310;SDS011;11828;51.508;18.118;2022-07-09T03:22:38;9.18;;;2.50;;
23310;SDS011;11828;51.508;18.118;2022-07-09T03:25:04;12.88;;;2.75;;
23310;SDS011;11828;51.508;18.118;2022-07-09T03:27:31;7.50;;;2.38;;
23310;SDS011;11828;51.508;18.118;2022-07-09T03:29:58;7.50;;;2.90;;
23310;SDS011;11828;51.508;18.118;2022-07-09T03:32:24;8.48;;;3.05;;
23310;SDS011;11828;51.508;18.118;2022-07-09T03:34:51;13.77;;;3.55;;
23310;SDS011;11828;51.508;18.118;2022-07-09T03:37:18;9.95;;;3.25;;
23310;SDS011;11828;51.508;18.118;2022-07-09T03:39:44;10.43;;;3.28;;
23310;SDS011;11828;51.508;18.118;2022-07-09T03:42:11;10.55;;;3.42;;
23310;SDS011;11828;51.508;18.118;2022-07-09T03:44:38;9.43;;;3.10;;
23310;SDS011;11828;51.508;18.118;2022-07-09T03:47:04;11.57;;;3.13;;
23310;SDS011;11828;51.508;18.118;2022-07-09T03:49:33;11.60;;;2.88;;
23310;SDS011;11828;51.508;18.118;2022-07-09T03:51:59;11.18;;;3.20;;
23310;SDS011;11828;51.508;18.118;2022-07-09T03:54:25;11.68;;;3.28;;
23310;SDS011;11828;51.508;18.118;2022-07-09T03:56:51;10.98;;;3.33;;
23310;SDS011;11828;51.508;18.118;2022-07-09T03:59:18;6.40;;;2.40;;
23310;SDS011;11828;51.508;18.118;2022-07-09T04:01:44;6.72;;;2.65;;
23310;SDS011;11828;51.508;18.118;2022-07-09T04:04:10;10.00;;;2.90;;
23310;SDS011;11828;51.508;18.118;2022-07-09T04:06:36;10.30;;;2.85;;
23310;SDS011;11828;51.508;18.118;2022-07-09T04:09:02;9.85;;;3.00;;
23310;SDS011;11828;51.508;18.118;2022-07-09T04:11:32;9.70;;;2.78;;
23310;SDS011;11828;51.508;18.118;2022-07-09T04:14:01;10.00;;;3.00;;
23310;SDS011;11828;51.508;18.118;2022-07-09T04:16:28;8.48;;;2.90;;
23310;SDS011;11828;51.508;18.118;2022-07-09T04:18:54;11.05;;;3.38;;
23310;SDS011;11828;51.508;18.118;2022-07-09T04:21:21;9.27;;;2.90;;
23310;SDS011;11828;51.508;18.118;2022-07-09T04:23:48;9.73;;;3.25;;
23310;SDS011;11828;51.508;18.118;2022-07-09T04:26:14;11.18;;;3.13;;
23310;SDS011;11828;51.508;18.118;2022-07-09T04:28:42;12.02;;;4.13;;
23310;SDS011;11828;51.508;18.118;2022-07-09T04:31:08;13.40;;;4.40;;
23310;SDS011;11828;51.508;18.118;2022-07-09T04:33:34;12.63;;;5.07;;
23310;SDS011;11828;51.508;18.118;2022-07-09T04:36:00;12.20;;;5.40;;
23310;SDS011;11828;51.508;18.118;2022-07-09T04:38:26;12.48;;;4.60;;
23310;SDS011;11828;51.508;18.118;2022-07-09T04:40:52;11.88;;;4.55;;
23310;SDS011;11828;51.508;18.118;2022-07-09T04:43:18;12.02;;;4.35;;
23310;SDS011;11828;51.508;18.118;2022-07-09T04:45:44;9.15;;;3.40;;
23310;SDS011;11828;51.508;18.118;2022-07-09T04:48:10;10.23;;;3.20;;
23310;SDS011;11828;51.508;18.118;2022-07-09T04:50:36;10.15;;;3.13;;
23310;SDS011;11828;51.508;18.118;2022-07-09T04:53:02;11.40;;;3.70;;
23310;SDS011;11828;51.508;18.118;2022-07-09T04:55:29;11.73;;;3.42;;
23310;SDS011;11828;51.508;18.118;2022-07-09T04:57:55;10.60;;;3.30;;
23310;SDS011;11828;51.508;18.118;2022-07-09T05:00:21;9.80;;;3.30;;
23310;SDS011;11828;51.508;18.118;2022-07-09T05:02:48;8.55;;;3.15;;
23310;SDS011;11828;51.508;18.118;2022-07-09T05:05:14;10.80;;;3.30;;
23310;SDS011;11828;51.508;18.118;2022-07-09T05:07:40;10.02;;;3.30;;
23310;SDS011;11828;51.508;18.118;2022-07-09T05:10:07;7.28;;;2.92;;
23310;SDS011;11828;51.508;18.118;2022-07-09T05:12:34;9.63;;;3.50;;
23310;SDS011;11828;51.508;18.118;2022-07-09T05:15:00;10.35;;;3.17;;
23310;SDS011;11828;51.508;18.118;2022-07-09T05:17:26;10.38;;;3.70;;
23310;SDS011;11828;51.508;18.118;2022-07-09T05:19:52;11.23;;;3.45;;
23310;SDS011;11828;51.508;18.118;2022-07-09T05:22:18;10.15;;;3.60;;
23310;SDS011;11828;51.508;18.118;2022-07-09T05:24:44;9.75;;;3.50;;
23310;SDS011;11828;51.508;18.118;2022-07-09T05:27:10;7.60;;;3.55;;
23310;SDS011;11828;51.508;18.118;2022-07-09T05:29:36;7.97;;;3.00;;
23310;SDS011;11828;51.508;18.118;2022-07-09T05:32:03;6.55;;;2.95;;
23310;SDS011;11828;51.508;18.118;2022-07-09T05:34:30;6.78;;;3.22;;
23310;SDS011;11828;51.508;18.118;2022-07-09T05:36:56;7.57;;;3.40;;
23310;SDS011;11828;51.508;18.118;2022-07-09T05:39:22;5.90;;;2.90;;
23310;SDS011;11828;51.508;18.118;2022-07-09T05:41:48;9.07;;;3.10;;
23310;SDS011;11828;51.508;18.118;2022-07-09T05:44:14;8.32;;;3.15;;
23310;SDS011;11828;51.508;18.118;2022-07-09T05:46:40;10.30;;;3.30;;
23310;SDS011;11828;51.508;18.118;2022-07-09T05:49:07;8.38;;;3.50;;
23310;SDS011;11828;51.508;18.118;2022-07-09T05:51:33;6.03;;;2.67;;
23310;SDS011;11828;51.508;18.118;2022-07-09T05:53:59;9.75;;;3.60;;
23310;SDS011;11828;51.508;18.118;2022-07-09T05:56:25;10.80;;;3.72;;
23310;SDS011;11828;51.508;18.118;2022-07-09T05:58:51;9.27;;;3.22;;
23310;SDS011;11828;51.508;18.118;2022-07-09T06:01:17;20.02;;;11.50;;
23310;SDS011;11828;51.508;18.118;2022-07-09T06:03:44;12.02;;;3.60;;
23310;SDS011;11828;51.508;18.118;2022-07-09T06:06:10;9.73;;;3.85;;
23310;SDS011;11828;51.508;18.118;2022-07-09T06:08:36;9.73;;;3.38;;
23310;SDS011;11828;51.508;18.118;2022-07-09T06:11:02;10.35;;;3.67;;
23310;SDS011;11828;51.508;18.118;2022-07-09T06:13:28;11.23;;;3.60;;
23310;SDS011;11828;51.508;18.118;2022-07-09T06:15:54;9.88;;;3.35;;
23310;SDS011;11828;51.508;18.118;2022-07-09T06:18:21;11.60;;;3.67;;
23310;SDS011;11828;51.508;18.118;2022-07-09T06:20:47;13.65;;;3.38;;
23310;SDS011;11828;51.508;18.118;2022-07-09T06:23:14;9.18;;;3.05;;
23310;SDS011;11828;51.508;18.118;2022-07-09T06:25:40;18.63;;;3.88;;
23310;SDS011;11828;51.508;18.118;2022-07-09T06:28:06;8.80;;;3.15;;
23310;SDS011;11828;51.508;18.118;2022-07-09T06:30:32;14.15;;;3.53;;
23310;SDS011;11828;51.508;18.118;2022-07-09T06:33:02;9.82;;;3.13;;
23310;SDS011;11828;51.508;18.118;2022-07-09T06:35:28;8.70;;;3.13;;
23310;SDS011;11828;51.508;18.118;2022-07-09T06:37:54;15.05;;;4.00;;
23310;SDS011;11828;51.508;18.118;2022-07-09T06:40:20;11.95;;;3.83;;
23310;SDS011;11828;51.508;18.118;2022-07-09T06:42:46;14.07;;;3.55;;
23310;SDS011;11828;51.508;18.118;2022-07-09T06:45:12;15.73;;;3.97;;
23310;SDS011;11828;51.508;18.118;2022-07-09T06:47:39;9.60;;;3.90;;
23310;SDS011;11828;51.508;18.118;2022-07-09T06:50:06;15.77;;;4.18;;
23310;SDS011;11828;51.508;18.118;2022-07-09T06:52:32;11.77;;;3.70;;
23310;SDS011;11828;51.508;18.118;2022-07-09T06:54:58;10.73;;;3.45;;
23310;SDS011;11828;51.508;18.118;2022-07-09T06:57:24;14.15;;;3.83;;
23310;SDS011;11828;51.508;18.118;2022-07-09T06:59:51;14.15;;;4.10;;
23310;SDS011;11828;51.508;18.118;2022-07-09T07:02:17;14.00;;;3.75;;
23310;SDS011;11828;51.508;18.118;2022-07-09T07:04:43;9.52;;;3.38;;
23310;SDS011;11828;51.508;18.118;2022-07-09T07:07:09;13.35;;;3.80;;
23310;SDS011;11828;51.508;18.118;2022-07-09T07:09:35;12.90;;;3.90;;
23310;SDS011;11828;51.508;18.118;2022-07-09T07:12:01;9.32;;;3.40;;
23310;SDS011;11828;51.508;18.118;2022-07-09T07:14:27;12.50;;;3.70;;
23310;SDS011;11828;51.508;18.118;2022-07-09T07:16:54;9.65;;;3.55;;
23310;SDS011;11828;51.508;18.118;2022-07-09T07:19:20;8.32;;;3.40;;
23310;SDS011;11828;51.508;18.118;2022-07-09T07:21:48;11.15;;;3.30;;
23310;SDS011;11828;51.508;18.118;2022-07-09T07:24:15;9.55;;;3.17;;
23310;SDS011;11828;51.508;18.118;2022-07-09T07:26:41;9.98;;;3.22;;
23310;SDS011;11828;51.508;18.118;2022-07-09T07:29:07;11.20;;;2.97;;
23310;SDS011;11828;51.508;18.118;2022-07-09T07:31:33;15.55;;;3.72;;
23310;SDS011;11828;51.508;18.118;2022-07-09T07:33:59;12.75;;;3.67;;
23310;SDS011;11828;51.508;18.118;2022-07-09T07:36:26;10.85;;;3.40;;
23310;SDS011;11828;51.508;18.118;2022-07-09T07:38:52;12.95;;;3.20;;
23310;SDS011;11828;51.508;18.118;2022-07-09T07:41:19;8.68;;;2.85;;
23310;SDS011;11828;51.508;18.118;2022-07-09T07:43:46;12.98;;;3.17;;
23310;SDS011;11828;51.508;18.118;2022-07-09T07:46:13;9.88;;;2.83;;
23310;SDS011;11828;51.508;18.118;2022-07-09T07:48:39;7.78;;;2.50;;
23310;SDS011;11828;51.508;18.118;2022-07-09T07:51:08;9.80;;;2.83;;
23310;SDS011;11828;51.508;18.118;2022-07-09T07:53:35;8.02;;;2.60;;
23310;SDS011;11828;51.508;18.118;2022-07-09T07:56:03;9.23;;;2.75;;
23310;SDS011;11828;51.508;18.118;2022-07-09T07:58:30;7.10;;;2.50;;
23310;SDS011;11828;51.508;18.118;2022-07-09T08:00:56;7.38;;;2.60;;
23310;SDS011;11828;51.508;18.118;2022-07-09T08:03:22;10.93;;;3.00;;
23310;SDS011;11828;51.508;18.118;2022-07-09T08:05:48;7.60;;;2.47;;
23310;SDS011;11828;51.508;18.118;2022-07-09T08:08:15;10.15;;;2.83;;
23310;SDS011;11828;51.508;18.118;2022-07-09T08:10:43;10.50;;;2.88;;
23310;SDS011;11828;51.508;18.118;2022-07-09T08:13:14;7.00;;;2.40;;
23310;SDS011;11828;51.508;18.118;2022-07-09T08:15:43;9.55;;;2.55;;
23310;SDS011;11828;51.508;18.118;2022-07-09T08:18:09;8.07;;;2.78;;
23310;SDS011;11828;51.508;18.118;2022-07-09T08:20:38;7.85;;;2.70;;
23310;SDS011;11828;51.508;18.118;2022-07-09T08:23:05;8.68;;;2.67;;
23310;SDS011;11828;51.508;18.118;2022-07-09T08:25:32;10.75;;;2.95;;
23310;SDS011;11828;51.508;18.118;2022-07-09T08:27:58;8.50;;;2.72;;
23310;SDS011;11828;51.508;18.118;2022-07-09T08:30:24;7.15;;;2.80;;
23310;SDS011;11828;51.508;18.118;2022-07-09T08:32:50;5.30;;;2.42;;
23310;SDS011;11828;51.508;18.118;2022-07-09T08:35:16;8.55;;;2.75;;
23310;SDS011;11828;51.508;18.118;2022-07-09T08:37:42;7.03;;;2.60;;
23310;SDS011;11828;51.508;18.118;2022-07-09T08:40:08;11.70;;;3.28;;
23310;SDS011;11828;51.508;18.118;2022-07-09T08:42:34;11.23;;;3.00;;
23310;SDS011;11828;51.508;18.118;2022-07-09T08:45:00;9.38;;;2.83;;
23310;SDS011;11828;51.508;18.118;2022-07-09T08:47:27;9.73;;;2.60;;
23310;SDS011;11828;51.508;18.118;2022-07-09T08:49:56;9.43;;;2.58;;
23310;SDS011;11828;51.508;18.118;2022-07-09T08:52:24;9.30;;;2.67;;
23310;SDS011;11828;51.508;18.118;2022-07-09T08:54:52;6.55;;;2.35;;
23310;SDS011;11828;51.508;18.118;2022-07-09T08:57:19;7.25;;;2.20;;
23310;SDS011;11828;51.508;18.118;2022-07-09T08:59:45;7.00;;;2.30;;
23310;SDS011;11828;51.508;18.118;2022-07-09T09:02:11;8.18;;;2.95;;
23310;SDS011;11828;51.508;18.118;2022-07-09T09:04:39;8.07;;;2.70;;
23310;SDS011;11828;51.508;18.118;2022-07-09T09:07:13;5.78;;;2.30;;
23310;SDS011;11828;51.508;18.118;2022-07-09T09:09:46;5.03;;;1.98;;
23310;SDS011;11828;51.508;18.118;2022-07-09T09:12:13;6.32;;;2.40;;
23310;SDS011;11828;51.508;18.118;2022-07-09T09:14:39;11.80;;;2.70;;
23310;SDS011;11828;51.508;18.118;2022-07-09T09:17:15;5.30;;;2.08;;
23310;SDS011;11828;51.508;18.118;2022-07-09T09:19:41;6.63;;;2.33;;
23310;SDS011;11828;51.508;18.118;2022-07-09T09:22:07;5.03;;;1.90;;
23310;SDS011;11828;51.508;18.118;2022-07-09T09:24:34;4.75;;;1.98;;
23310;SDS011;11828;51.508;18.118;2022-07-09T09:27:01;5.70;;;2.03;;
23310;SDS011;11828;51.508;18.118;2022-07-09T09:29:27;6.63;;;3.70;;
23310;SDS011;11828;51.508;18.118;2022-07-09T09:31:54;6.60;;;2.30;;
23310;SDS011;11828;51.508;18.118;2022-07-09T09:34:21;3.72;;;2.00;;
23310;SDS011;11828;51.508;18.118;2022-07-09T09:36:52;4.43;;;1.95;;
23310;SDS011;11828;51.508;18.118;2022-07-09T09:39:24;4.80;;;1.85;;
23310;SDS011;11828;51.508;18.118;2022-07-09T09:41:53;4.68;;;2.17;;
23310;SDS011;11828;51.508;18.118;2022-07-09T09:44:25;3.13;;;1.60;;
23310;SDS011;11828;51.508;18.118;2022-07-09T09:46:54;4.28;;;2.00;;
23310;SDS011;11828;51.508;18.118;2022-07-09T09:49:22;6.57;;;2.50;;
23310;SDS011;11828;51.508;18.118;2022-07-09T09:52:04;4.20;;;1.92;;
23310;SDS011;11828;51.508;18.118;2022-07-09T09:54:38;5.97;;;2.22;;
23310;SDS011;11828;51.508;18.118;2022-07-09T09:57:13;5.65;;;2.35;;
23310;SDS011;11828;51.508;18.118;2022-07-09T09:59:42;3.03;;;1.65;;
23310;SDS011;11828;51.508;18.118;2022-07-09T10:02:12;2.88;;;1.48;;
23310;SDS011;11828;51.508;18.118;2022-07-09T10:04:42;3.22;;;1.65;;
23310;SDS011;11828;51.508;18.118;2022-07-09T10:07:15;3.30;;;1.75;;
23310;SDS011;11828;51.508;18.118;2022-07-09T10:09:55;3.30;;;1.63;;
23310;SDS011;11828;51.508;18.118;2022-07-09T10:14:58;3.65;;;1.90;;
23310;SDS011;11828;51.508;18.118;2022-07-09T10:17:25;3.15;;;1.95;;
23310;SDS011;11828;51.508;18.118;2022-07-09T10:22:20;2.22;;;1.40;;
23310;SDS011;11828;51.508;18.118;2022-07-09T10:24:49;3.17;;;1.65;;
23310;SDS011;11828;51.508;18.118;2022-07-09T10:27:18;3.40;;;1.90;;
23310;SDS011;11828;51.508;18.118;2022-07-09T10:29:57;3.25;;;1.58;;
23310;SDS011;11828;51.508;18.118;2022-07-09T10:32:27;4.13;;;1.67;;
23310;SDS011;11828;51.508;18.118;2022-07-09T10:35:00;3.67;;;1.73;;
23310;SDS011;11828;51.508;18.118;2022-07-09T10:40:19;3.78;;;1.77;;
23310;SDS011;11828;51.508;18.118;2022-07-09T10:43:02;5.70;;;2.05;;
23310;SDS011;11828;51.508;18.118;2022-07-09T10:45:35;3.78;;;1.92;;
23310;SDS011;11828;51.508;18.118;2022-07-09T10:48:07;4.18;;;2.00;;
23310;SDS011;11828;51.508;18.118;2022-07-09T10:50:39;3.42;;;1.63;;
23310;SDS011;11828;51.508;18.118;2022-07-09T10:53:07;3.30;;;1.80;;
23310;SDS011;11828;51.508;18.118;2022-07-09T10:55:34;3.00;;;1.80;;
23310;SDS011;11828;51.508;18.118;2022-07-09T10:58:00;4.50;;;1.88;;
23310;SDS011;11828;51.508;18.118;2022-07-09T11:00:32;4.13;;;1.98;;
23310;SDS011;11828;51.508;18.118;2022-07-09T11:03:00;4.57;;;1.85;;
23310;SDS011;11828;51.508;18.118;2022-07-09T11:05:31;4.25;;;1.90;;
23310;SDS011;11828;51.508;18.118;2022-07-09T11:08:07;4.07;;;1.90;;
23310;SDS011;11828;51.508;18.118;2022-07-09T11:10:36;5.10;;;1.98;;
23310;SDS011;11828;51.508;18.118;2022-07-09T11:13:05;4.28;;;1.80;;
23310;SDS011;11828;51.508;18.118;2022-07-09T11:15:34;3.40;;;1.77;;
23310;SDS011;11828;51.508;18.118;2022-07-09T11:20:45;3.92;;;1.70;;
23310;SDS011;11828;51.508;18.118;2022-07-09T11:23:12;2.97;;;1.55;;
23310;SDS011;11828;51.508;18.118;2022-07-09T11:25:40;3.08;;;1.50;;
23310;SDS011;11828;51.508;18.118;2022-07-09T11:28:08;3.83;;;1.60;;
23310;SDS011;11828;51.508;18.118;2022-07-09T11:30:34;3.10;;;1.77;;
23310;SDS011;11828;51.508;18.118;2022-07-09T11:33:02;6.53;;;1.92;;
23310;SDS011;11828;51.508;18.118;2022-07-09T11:35:32;3.15;;;1.50;;
23310;SDS011;11828;51.508;18.118;2022-07-09T11:38:01;6.72;;;2.00;;
23310;SDS011;11828;51.508;18.118;2022-07-09T11:40:29;4.63;;;1.90;;
23310;SDS011;11828;51.508;18.118;2022-07-09T11:42:56;2.88;;;1.50;;
23310;SDS011;11828;51.508;18.118;2022-07-09T11:45:26;4.78;;;1.85;;
23310;SDS011;11828;51.508;18.118;2022-07-09T11:50:44;5.53;;;1.70;;
23310;SDS011;11828;51.508;18.118;2022-07-09T11:53:19;5.43;;;2.05;;
23310;SDS011;11828;51.508;18.118;2022-07-09T11:55:58;6.22;;;2.15;;
23310;SDS011;11828;51.508;18.118;2022-07-09T11:58:26;6.28;;;1.83;;
23310;SDS011;11828;51.508;18.118;2022-07-09T12:00:53;7.30;;;2.30;;
23310;SDS011;11828;51.508;18.118;2022-07-09T12:03:25;4.63;;;1.80;;
23310;SDS011;11828;51.508;18.118;2022-07-09T12:05:55;6.05;;;2.10;;
23310;SDS011;11828;51.508;18.118;2022-07-09T12:08:30;9.07;;;2.13;;
23310;SDS011;11828;51.508;18.118;2022-07-09T12:10:57;5.72;;;1.90;;
23310;SDS011;11828;51.508;18.118;2022-07-09T12:13:25;6.47;;;2.00;;
23310;SDS011;11828;51.508;18.118;2022-07-09T12:15:51;7.40;;;2.30;;
23310;SDS011;11828;51.508;18.118;2022-07-09T12:18:17;8.07;;;2.60;;
23310;SDS011;11828;51.508;18.118;2022-07-09T12:20:43;9.40;;;2.67;;
23310;SDS011;11828;51.508;18.118;2022-07-09T12:23:09;6.13;;;2.58;;
23310;SDS011;11828;51.508;18.118;2022-07-09T12:25:35;8.10;;;2.60;;
23310;SDS011;11828;51.508;18.118;2022-07-09T12:28:01;4.63;;;2.10;;
23310;SDS011;11828;51.508;18.118;2022-07-09T12:30:27;5.78;;;2.20;;
23310;SDS011;11828;51.508;18.118;2022-07-09T12:32:57;9.25;;;2.67;;
23310;SDS011;11828;51.508;18.118;2022-07-09T12:35:24;5.97;;;2.40;;
23310;SDS011;11828;51.508;18.118;2022-07-09T12:37:50;5.82;;;2.45;;
23310;SDS011;11828;51.508;18.118;2022-07-09T12:40:17;6.55;;;2.17;;
23310;SDS011;11828;51.508;18.118;2022-07-09T12:42:43;9.52;;;2.67;;
23310;SDS011;11828;51.508;18.118;2022-07-09T12:45:10;6.13;;;2.30;;
23310;SDS011;11828;51.508;18.118;2022-07-09T12:47:37;9.98;;;2.63;;
23310;SDS011;11828;51.508;18.118;2022-07-09T12:50:04;7.10;;;2.50;;
23310;SDS011;11828;51.508;18.118;2022-07-09T12:52:31;6.30;;;2.50;;
23310;SDS011;11828;51.508;18.118;2022-07-09T12:55:02;6.35;;;2.30;;
23310;SDS011;11828;51.508;18.118;2022-07-09T12:57:29;6.05;;;2.13;;
23310;SDS011;11828;51.508;18.118;2022-07-09T12:59:55;5.78;;;2.40;;
23310;SDS011;11828;51.508;18.118;2022-07-09T13:02:22;6.60;;;2.30;;
23310;SDS011;11828;51.508;18.118;2022-07-09T13:04:48;6.30;;;2.20;;
23310;SDS011;11828;51.508;18.118;2022-07-09T13:07:14;6.90;;;2.20;;
23310;SDS011;11828;51.508;18.118;2022-07-09T13:09:40;5.50;;;2.05;;
23310;SDS011;11828;51.508;18.118;2022-07-09T13:12:06;10.35;;;2.72;;
23310;SDS011;11828;51.508;18.118;2022-07-09T13:14:32;5.55;;;2.30;;
23310;SDS011;11828;51.508;18.118;2022-07-09T13:16:58;7.75;;;2.70;;
23310;SDS011;11828;51.508;18.118;2022-07-09T13:19:24;10.38;;;2.63;;
23310;SDS011;11828;51.508;18.118;2022-07-09T13:21:51;9.93;;;2.80;;
23310;SDS011;11828;51.508;18.118;2022-07-09T13:24:17;5.10;;;2.20;;
23310;SDS011;11828;51.508;18.118;2022-07-09T13:26:43;6.47;;;2.20;;
23310;SDS011;11828;51.508;18.118;2022-07-09T13:29:09;6.38;;;2.20;;
23310;SDS011;11828;51.508;18.118;2022-07-09T13:31:35;6.22;;;2.17;;
23310;SDS011;11828;51.508;18.118;2022-07-09T13:34:01;6.47;;;2.10;;
23310;SDS011;11828;51.508;18.118;2022-07-09T13:36:27;7.45;;;2.17;;
23310;SDS011;11828;51.508;18.118;2022-07-09T13:38:53;9.18;;;2.70;;
23310;SDS011;11828;51.508;18.118;2022-07-09T13:41:19;9.40;;;2.80;;
23310;SDS011;11828;51.508;18.118;2022-07-09T13:43:45;7.38;;;2.47;;
23310;SDS011;11828;51.508;18.118;2022-07-09T13:46:12;6.53;;;1.98;;
23310;SDS011;11828;51.508;18.118;2022-07-09T13:48:38;7.13;;;2.20;;
23310;SDS011;11828;51.508;18.118;2022-07-09T13:51:04;11.88;;;2.83;;
23310;SDS011;11828;51.508;18.118;2022-07-09T13:53:31;9.05;;;2.88;;
23310;SDS011;11828;51.508;18.118;2022-07-09T13:55:57;16.55;;;3.83;;
23310;SDS011;11828;51.508;18.118;2022-07-09T13:58:24;10.23;;;2.58;;
23310;SDS011;11828;51.508;18.118;2022-07-09T14:00:50;14.63;;;3.05;;
23310;SDS011;11828;51.508;18.118;2022-07-09T14:03:16;17.40;;;3.72;;
23310;SDS011;11828;51.508;18.118;2022-07-09T14:05:43;10.93;;;2.50;;
23310;SDS011;11828;51.508;18.118;2022-07-09T14:08:09;7.90;;;2.20;;
23310;SDS011;11828;51.508;18.118;2022-07-09T14:10:35;15.27;;;3.45;;
23310;SDS011;11828;51.508;18.118;2022-07-09T14:13:01;16.70;;;3.53;;
23310;SDS011;11828;51.508;18.118;2022-07-09T14:15:29;16.48;;;3.30;;
23310;SDS011;11828;51.508;18.118;2022-07-09T14:17:56;9.20;;;2.65;;
23310;SDS011;11828;51.508;18.118;2022-07-09T14:20:22;13.30;;;3.10;;
23310;SDS011;11828;51.508;18.118;2022-07-09T14:22:48;12.77;;;2.75;;
23310;SDS011;11828;51.508;18.118;2022-07-09T14:25:14;14.27;;;3.05;;
23310;SDS011;11828;51.508;18.118;2022-07-09T14:27:41;9.30;;;2.45;;
23310;SDS011;11828;51.508;18.118;2022-07-09T14:30:07;15.95;;;3.25;;
23310;SDS011;11828;51.508;18.118;2022-07-09T14:32:34;27.50;;;4.70;;
23310;SDS011;11828;51.508;18.118;2022-07-09T14:35:00;21.60;;;4.10;;
23310;SDS011;11828;51.508;18.118;2022-07-09T14:37:26;10.70;;;2.40;;
23310;SDS011;11828;51.508;18.118;2022-07-09T14:39:53;11.50;;;2.70;;
23310;SDS011;11828;51.508;18.118;2022-07-09T14:42:19;19.20;;;3.83;;